Time;durP1;ratioP1;P1;durP2;ratioP2;P2;SDS_P1;SDS_P2;PMS_P1;PMS_P2;Temp;Humidity;BMP_temperature;BMP_pressure;BME280_temperature;BME280_humidity;BME280_pressure;Samples;Min_cycle;Max_cycle;Signal;HPM_P1;HPM_P2
2024/04/10 00:00:59;;;;;;;1.97;0.87;;;;;;;;;;5491931;26;20450;-86
2024/04/10 00:03:29;;;;;;;4.07;1.30;;;;;;;;;;5491823;26;20446;-87
2024/04/10 00:06:04;;;;;;;1.43;0.67;;;;;;;;;;5491706;26;20498;-77
2024/04/10 00:08:31;;;;;;;4.73;0.73;;;;;;;;;;5492000;26;20490;-84
2024/04/10 00:10:57;;;;;;;2.20;0.63;;;;;;;;;;5491559;26;20436;-81
2024/04/10 00:13:23;;;;;;;3.90;0.73;;;;;;;;;;5490774;26;20490;-77
2024/04/10 00:16:06;;;;;;;3.70;1.57;;;;;;;;;;5491459;26;21076;-80
2024/04/10 00:18:32;;;;;;;2.50;0.80;;;;;;;;;;5491188;26;20585;-73
2024/04/10 00:20:59;;;;;;;4.07;0.47;;;;;;;;;;5491333;26;20558;-74
2024/04/10 00:23:24;;;;;;;9.30;1.10;;;;;;;;;;5491215;26;20495;-73
2024/04/10 00:26:08;;;;;;;3.90;0.70;;;;;;;;;;5491205;26;20445;-74
2024/04/10 00:28:34;;;;;;;3.17;0.80;;;;;;;;;;5491391;26;20774;-73
2024/04/10 00:31:04;;;;;;;7.30;1.27;;;;;;;;;;5491198;26;20446;-74
2024/04/10 00:33:30;;;;;;;2.97;0.67;;;;;;;;;;5491155;26;20438;-74
2024/04/10 00:35:57;;;;;;;5.03;1.27;;;;;;;;;;5491074;26;20487;-73
2024/04/10 00:38:23;;;;;;;6.83;1.07;;;;;;;;;;5491069;26;20209;-73
2024/04/10 00:40:52;;;;;;;4.00;0.97;;;;;;;;;;5491250;26;20440;-82
2024/04/10 00:43:19;;;;;;;2.00;0.87;;;;;;;;;;5490490;26;20560;-74
2024/04/10 00:45:46;;;;;;;4.30;1.07;;;;;;;;;;5490940;26;20781;-73
2024/04/10 00:48:14;;;;;;;7.37;1.47;;;;;;;;;;5490969;26;20434;-76
2024/04/10 00:50:40;;;;;;;5.03;1.17;;;;;;;;;;5458837;26;20451;-73
2024/04/10 00:53:06;;;;;;;3.83;1.00;;;;;;;;;;5491099;26;20481;-73
2024/04/10 00:55:33;;;;;;;7.60;0.70;;;;;;;;;;5490777;26;20438;-73
2024/04/10 00:57:59;;;;;;;3.97;1.20;;;;;;;;;;5490684;26;20849;-78
2024/04/10 01:00:25;;;;;;;2.90;1.03;;;;;;;;;;5490647;26;20442;-73
2024/04/10 01:02:51;;;;;;;5.20;2.03;;;;;;;;;;5458524;26;21095;-74
2024/04/10 01:05:17;;;;;;;4.47;1.13;;;;;;;;;;5490765;26;20479;-82
2024/04/10 01:07:44;;;;;;;4.20;1.30;;;;;;;;;;5490877;26;20452;-74
2024/04/10 01:10:10;;;;;;;3.53;0.87;;;;;;;;;;5490891;26;20495;-74
2024/04/10 01:12:38;;;;;;;7.17;1.70;;;;;;;;;;5490123;26;20441;-75
2024/04/10 01:15:04;;;;;;;5.13;1.07;;;;;;;;;;5490542;26;20502;-75
2024/04/10 01:17:30;;;;;;;3.77;1.27;;;;;;;;;;5490525;26;20866;-73
2024/04/10 01:19:56;;;;;;;3.90;1.90;;;;;;;;;;5490140;26;20524;-75
2024/04/10 01:22:22;;;;;;;7.50;1.67;;;;;;;;;;5490461;26;20446;-84
2024/04/10 01:24:50;;;;;;;6.30;1.30;;;;;;;;;;5488736;26;20690;-83
2024/04/10 01:27:16;;;;;;;2.37;0.90;;;;;;;;;;5457773;26;20578;-85
2024/04/10 01:29:42;;;;;;;7.30;2.47;;;;;;;;;;5490592;26;20444;-82
2024/04/10 01:32:08;;;;;;;4.03;1.70;;;;;;;;;;5490380;26;20312;-75
2024/04/10 01:34:33;;;;;;;6.17;1.40;;;;;;;;;;5490318;26;20486;-79
2024/04/10 01:36:59;;;;;;;3.97;1.27;;;;;;;;;;5490377;26;20222;-85
2024/04/10 01:39:26;;;;;;;5.47;1.90;;;;;;;;;;5490339;26;20954;-85
2024/04/10 01:41:52;;;;;;;4.90;1.20;;;;;;;;;;5489973;26;20448;-85
2024/04/10 01:44:18;;;;;;;3.57;1.67;;;;;;;;;;5490142;26;20442;-83
2024/04/10 01:46:44;;;;;;;4.87;1.60;;;;;;;;;;5490116;26;20437;-85
2024/04/10 01:49:10;;;;;;;5.30;1.63;;;;;;;;;;5490638;26;20598;-78
2024/04/10 01:51:36;;;;;;;4.67;1.00;;;;;;;;;;5490248;26;20442;-74
2024/04/10 01:54:02;;;;;;;4.00;1.43;;;;;;;;;;5490313;26;20324;-77
2024/04/10 01:56:27;;;;;;;6.00;2.13;;;;;;;;;;5489729;26;20559;-88
2024/04/10 01:58:53;;;;;;;9.37;1.93;;;;;;;;;;5490401;26;20212;-83
2024/04/10 02:01:21;;;;;;;4.60;1.47;;;;;;;;;;5490325;26;21009;-82
2024/04/10 02:03:48;;;;;;;7.63;1.60;;;;;;;;;;5490145;26;20218;-84
2024/04/10 02:06:14;;;;;;;7.17;1.30;;;;;;;;;;5490286;26;20500;-89
2024/04/10 02:08:40;;;;;;;4.20;1.77;;;;;;;;;;5490197;26;20438;-89
2024/04/10 02:14:03;;;;;;;5.57;1.30;;;;;;;;;;5410383;26;20444;-78
2024/04/10 02:16:29;;;;;;;4.83;1.33;;;;;;;;;;5490159;26;20498;-80
2024/04/10 02:18:56;;;;;;;5.50;0.80;;;;;;;;;;5489733;26;20839;-73
2024/04/10 02:21:22;;;;;;;6.57;1.23;;;;;;;;;;5489512;26;20434;-74
2024/04/10 02:23:48;;;;;;;6.80;1.47;;;;;;;;;;5489438;26;20428;-81
2024/04/10 02:26:14;;;;;;;4.33;1.77;;;;;;;;;;5489231;26;20433;-75
2024/04/10 02:28:41;;;;;;;11.17;1.97;;;;;;;;;;5489459;26;20437;-82
2024/04/10 02:31:07;;;;;;;4.70;1.67;;;;;;;;;;5489438;26;20548;-87
2024/04/10 02:33:35;;;;;;;5.40;2.33;;;;;;;;;;5489384;26;20554;-74
2024/04/10 02:36:01;;;;;;;6.00;1.57;;;;;;;;;;5491212;26;20441;-74
2024/04/10 02:38:29;;;;;;;4.97;1.50;;;;;;;;;;5492737;26;20498;-75
2024/04/10 02:40:55;;;;;;;6.47;2.00;;;;;;;;;;5492387;26;20503;-74
2024/04/10 02:43:21;;;;;;;5.97;2.30;;;;;;;;;;5492738;26;20950;-74
2024/04/10 02:45:56;;;;;;;5.23;1.50;;;;;;;;;;5492912;26;20434;-79
2024/04/10 02:48:22;;;;;;;7.30;1.50;;;;;;;;;;5492573;26;20573;-74
2024/04/10 02:50:49;;;;;;;4.23;2.07;;;;;;;;;;5492634;26;20520;-73
2024/04/10 02:53:15;;;;;;;2.70;0.90;;;;;;;;;;5492558;26;20497;-74
2024/04/10 02:55:44;;;;;;;4.47;1.80;;;;;;;;;;5460008;26;20491;-74
2024/04/10 02:58:13;;;;;;;3.80;1.03;;;;;;;;;;5460203;26;20866;-74
2024/04/10 03:00:46;;;;;;;4.73;1.57;;;;;;;;;;5460206;26;20897;-74
2024/04/10 03:03:12;;;;;;;10.33;2.30;;;;;;;;;;5492415;26;20434;-76
2024/04/10 03:05:42;;;;;;;6.53;1.77;;;;;;;;;;5492338;26;20506;-75
2024/04/10 03:08:08;;;;;;;6.77;1.40;;;;;;;;;;5492572;26;20789;-74
2024/04/10 03:10:34;;;;;;;2.47;0.50;;;;;;;;;;5492348;26;20499;-74
2024/04/10 03:13:00;;;;;;;2.00;0.30;;;;;;;;;;5491904;26;20437;-75
2024/04/10 03:15:26;;;;;;;2.23;0.27;;;;;;;;;;5492361;26;20442;-73
2024/04/10 03:17:53;;;;;;;3.53;0.30;;;;;;;;;;5492158;26;20497;-75
2024/04/10 03:20:19;;;;;;;4.63;0.30;;;;;;;;;;5492100;26;20514;-76
2024/04/10 03:22:46;;;;;;;2.13;0.30;;;;;;;;;;5492021;26;20503;-74
2024/04/10 03:25:11;;;;;;;1.23;0.33;;;;;;;;;;5492067;26;20494;-75
2024/04/10 03:27:37;;;;;;;1.17;0.20;;;;;;;;;;5491749;26;20516;-74
2024/04/10 03:30:03;;;;;;;1.90;0.33;;;;;;;;;;5492208;26;20807;-77
2024/04/10 03:32:31;;;;;;;2.47;0.43;;;;;;;;;;5492119;26;20452;-74
2024/04/10 03:34:57;;;;;;;2.00;0.40;;;;;;;;;;5491825;26;21006;-74
2024/04/10 03:37:23;;;;;;;3.10;0.20;;;;;;;;;;5492016;26;20434;-82
2024/04/10 03:39:49;;;;;;;4.93;0.70;;;;;;;;;;5491985;26;21050;-80
2024/04/10 03:42:15;;;;;;;3.03;0.33;;;;;;;;;;5491520;26;20446;-87
2024/04/10 03:44:41;;;;;;;0.93;0.30;;;;;;;;;;5492235;26;20430;-83
2024/04/10 03:47:07;;;;;;;1.70;0.30;;;;;;;;;;5491653;26;20446;-78
2024/04/10 03:49:33;;;;;;;1.93;0.20;;;;;;;;;;5492411;26;20327;-76
2024/04/10 03:52:02;;;;;;;2.50;0.27;;;;;;;;;;5492132;26;21021;-76
2024/04/10 03:54:28;;;;;;;3.20;0.40;;;;;;;;;;5492350;26;20289;-84
2024/04/10 03:56:53;;;;;;;0.90;0.20;;;;;;;;;;5491540;26;20438;-75
2024/04/10 03:59:20;;;;;;;2.63;0.30;;;;;;;;;;5459489;26;21017;-80
2024/04/10 04:01:46;;;;;;;5.23;0.30;;;;;;;;;;5491467;26;20454;-81
2024/04/10 04:04:12;;;;;;;3.70;0.50;;;;;;;;;;5491792;26;20441;-77
2024/04/10 04:06:38;;;;;;;4.57;0.30;;;;;;;;;;5491726;26;20493;-82
2024/04/10 04:09:04;;;;;;;2.20;0.20;;;;;;;;;;5491383;26;20453;-80
2024/04/10 04:11:30;;;;;;;2.00;0.20;;;;;;;;;;5491808;26;21104;-78
2024/04/10 04:13:56;;;;;;;3.13;0.50;;;;;;;;;;5492100;26;20490;-79
2024/04/10 04:16:23;;;;;;;6.60;0.30;;;;;;;;;;5492300;26;20427;-84
2024/04/10 04:18:50;;;;;;;3.03;0.50;;;;;;;;;;5492014;26;20537;-88
2024/04/10 04:21:17;;;;;;;2.13;0.30;;;;;;;;;;5492466;26;20447;-82
2024/04/10 04:23:45;;;;;;;3.63;0.50;;;;;;;;;;5492444;26;20496;-84
2024/04/10 04:26:11;;;;;;;2.40;0.30;;;;;;;;;;5491833;26;20488;-76
2024/04/10 04:28:37;;;;;;;5.00;0.50;;;;;;;;;;5492503;26;21080;-81
2024/04/10 04:31:03;;;;;;;1.43;0.43;;;;;;;;;;5492508;26;21075;-81
2024/04/10 04:33:29;;;;;;;8.70;0.77;;;;;;;;;;5492152;26;20423;-86
2024/04/10 04:35:55;;;;;;;5.13;0.50;;;;;;;;;;5492640;26;20491;-78
2024/04/10 04:38:21;;;;;;;4.50;0.70;;;;;;;;;;5491900;26;20968;-90
2024/04/10 04:40:47;;;;;;;4.20;0.37;;;;;;;;;;5491431;26;20438;-81
2024/04/10 04:43:13;;;;;;;3.90;0.30;;;;;;;;;;5491817;26;20517;-76
2024/04/10 04:45:40;;;;;;;3.07;0.60;;;;;;;;;;5491486;26;20458;-76
2024/04/10 04:48:10;;;;;;;3.63;0.30;;;;;;;;;;5491255;26;20434;-74
2024/04/10 04:50:41;;;;;;;2.40;0.40;;;;;;;;;;5491549;26;20546;-80
2024/04/10 04:53:07;;;;;;;3.70;0.50;;;;;;;;;;5491356;26;20442;-75
2024/04/10 04:55:33;;;;;;;2.70;0.30;;;;;;;;;;5490354;26;20521;-78
2024/04/10 04:57:59;;;;;;;5.40;0.30;;;;;;;;;;5490487;26;20458;-79
2024/04/10 05:00:25;;;;;;;2.70;0.30;;;;;;;;;;5489732;26;20511;-76
2024/04/10 05:02:51;;;;;;;4.30;0.33;;;;;;;;;;5490985;26;20599;-79
2024/04/10 05:05:18;;;;;;;3.60;0.60;;;;;;;;;;5491170;26;20479;-78
2024/04/10 05:07:45;;;;;;;2.10;0.20;;;;;;;;;;5491286;26;20774;-79
2024/04/10 05:10:11;;;;;;;4.60;0.57;;;;;;;;;;5491226;26;20426;-74
2024/04/10 05:12:38;;;;;;;3.77;0.40;;;;;;;;;;5490776;26;20435;-80
2024/04/10 05:15:07;;;;;;;4.40;0.47;;;;;;;;;;5490910;26;20709;-80
2024/04/10 05:17:34;;;;;;;3.07;0.63;;;;;;;;;;5490965;26;20556;-74
2024/04/10 05:20:00;;;;;;;3.27;0.63;;;;;;;;;;5490531;26;20575;-81
2024/04/10 05:22:26;;;;;;;3.73;0.70;;;;;;;;;;5490492;26;20882;-78
2024/04/10 05:24:52;;;;;;;3.03;0.77;;;;;;;;;;5490957;26;20457;-76
2024/04/10 05:27:25;;;;;;;2.83;0.50;;;;;;;;;;5490227;26;20437;-82
2024/04/10 05:29:56;;;;;;;3.17;0.67;;;;;;;;;;5490918;26;20497;-79
2024/04/10 05:32:22;;;;;;;2.90;0.50;;;;;;;;;;5458455;26;20456;-77
2024/04/10 05:34:48;;;;;;;3.60;0.53;;;;;;;;;;5490665;26;20506;-79
2024/04/10 05:37:14;;;;;;;4.53;0.67;;;;;;;;;;5490394;26;20493;-78
2024/04/10 05:39:40;;;;;;;2.50;0.47;;;;;;;;;;5458507;26;20524;-80
2024/04/10 05:42:06;;;;;;;5.43;1.00;;;;;;;;;;5490521;26;20441;-75
2024/04/10 05:44:33;;;;;;;4.37;0.93;;;;;;;;;;5490465;26;20219;-74
2024/04/10 05:47:00;;;;;;;6.80;1.10;;;;;;;;;;5490160;26;20499;-74
2024/04/10 05:49:26;;;;;;;6.60;1.13;;;;;;;;;;5489835;26;20975;-77
2024/04/10 05:51:52;;;;;;;8.37;1.20;;;;;;;;;;5457837;26;21022;-74
2024/04/10 05:54:18;;;;;;;8.13;0.77;;;;;;;;;;5489953;26;20442;-74
2024/04/10 05:56:44;;;;;;;4.50;0.97;;;;;;;;;;5489877;26;20497;-89
2024/04/10 05:59:09;;;;;;;5.90;0.80;;;;;;;;;;5489992;26;20848;-73
2024/04/10 06:01:35;;;;;;;2.00;0.53;;;;;;;;;;5449185;26;20470;-74
2024/04/10 06:04:02;;;;;;;6.30;0.77;;;;;;;;;;5483071;26;20267;-74
2024/04/10 06:06:27;;;;;;;4.03;0.30;;;;;;;;;;5486848;26;20454;-74
2024/04/10 06:08:53;;;;;;;4.50;0.73;;;;;;;;;;5473711;26;21112;-73
2024/04/10 06:11:19;;;;;;;6.40;0.57;;;;;;;;;;5467966;26;20439;-74
2024/04/10 06:13:49;;;;;;;7.03;1.90;;;;;;;;;;5453078;26;20257;-84
2024/04/10 06:16:15;;;;;;;4.63;0.40;;;;;;;;;;5420343;26;20214;-75
2024/04/10 06:18:41;;;;;;;3.70;0.57;;;;;;;;;;5452882;26;20840;-74
2024/04/10 06:22:54;;;;;;;3.50;0.63;;;;;;;;;;5446882;26;20553;-87
2024/04/10 06:25:20;;;;;;;11.57;1.17;;;;;;;;;;5443744;26;20864;-81
2024/04/10 06:27:46;;;;;;;4.20;0.30;;;;;;;;;;5470299;26;20449;-79
2024/04/10 06:30:12;;;;;;;3.97;0.93;;;;;;;;;;5472100;26;20206;-87
2024/04/10 06:32:38;;;;;;;3.70;0.57;;;;;;;;;;5470377;26;20502;-86
2024/04/10 06:35:04;;;;;;;6.50;0.33;;;;;;;;;;5467294;26;20439;-74
2024/04/10 06:37:33;;;;;;;6.00;0.43;;;;;;;;;;5421950;26;20449;-80
2024/04/10 06:39:59;;;;;;;4.13;0.40;;;;;;;;;;5435772;26;21033;-75
2024/04/10 06:42:25;;;;;;;1.93;0.20;;;;;;;;;;5410528;26;20462;-77
2024/04/10 06:44:51;;;;;;;5.83;0.40;;;;;;;;;;5399835;26;20456;-76
2024/04/10 06:47:17;;;;;;;7.03;0.57;;;;;;;;;;5397965;26;20489;-74
2024/04/10 06:49:43;;;;;;;5.33;1.53;;;;;;;;;;5426635;26;20485;-86
2024/04/10 06:52:09;;;;;;;3.77;0.60;;;;;;;;;;5435345;26;20688;-80
2024/04/10 06:54:35;;;;;;;3.97;0.80;;;;;;;;;;5433436;26;21065;-76
2024/04/10 06:57:01;;;;;;;4.60;0.70;;;;;;;;;;5412938;26;20464;-81
2024/04/10 06:59:27;;;;;;;3.90;0.53;;;;;;;;;;5399713;26;20220;-80
2024/04/10 07:01:52;;;;;;;5.03;0.90;;;;;;;;;;5399962;26;20221;-75
2024/04/10 07:04:18;;;;;;;3.17;0.50;;;;;;;;;;5397925;26;20455;-82
2024/04/10 07:06:44;;;;;;;4.63;0.47;;;;;;;;;;5398279;26;20221;-88
2024/04/10 07:09:11;;;;;;;4.33;0.83;;;;;;;;;;5399787;26;20448;-78
2024/04/10 07:11:37;;;;;;;6.33;0.90;;;;;;;;;;5399543;26;20501;-77
2024/04/10 07:14:03;;;;;;;3.83;0.60;;;;;;;;;;5399754;26;20450;-76
2024/04/10 07:16:30;;;;;;;7.20;0.93;;;;;;;;;;5399509;26;20974;-75
2024/04/10 07:18:56;;;;;;;5.23;0.73;;;;;;;;;;5399521;26;20216;-80
2024/04/10 07:21:22;;;;;;;2.53;0.27;;;;;;;;;;5399211;26;20464;-85
2024/04/10 07:23:49;;;;;;;5.80;0.47;;;;;;;;;;5399601;26;20530;-88
2024/04/10 07:26:15;;;;;;;3.60;0.83;;;;;;;;;;5399149;26;20449;-82
2024/04/10 07:28:45;;;;;;;5.80;0.33;;;;;;;;;;5399632;26;20444;-83
2024/04/10 07:31:12;;;;;;;7.90;1.30;;;;;;;;;;5399829;26;20433;-74
2024/04/10 07:33:38;;;;;;;2.57;0.20;;;;;;;;;;5386734;26;20434;-83
2024/04/10 07:36:09;;;;;;;3.23;0.30;;;;;;;;;;5384164;26;20451;-76
2024/04/10 07:38:36;;;;;;;4.10;0.73;;;;;;;;;;5384390;26;20448;-75
2024/04/10 07:41:04;;;;;;;3.30;0.63;;;;;;;;;;5413002;26;20449;-80
2024/04/10 07:43:30;;;;;;;5.93;0.43;;;;;;;;;;5419882;26;20488;-76
2024/04/10 07:45:55;;;;;;;1.23;0.30;;;;;;;;;;5420068;26;20988;-74
2024/04/10 07:48:21;;;;;;;5.40;0.43;;;;;;;;;;5418991;26;20229;-76
2024/04/10 07:50:47;;;;;;;4.90;0.53;;;;;;;;;;5420690;26;20222;-77
2024/04/10 07:53:13;;;;;;;3.90;0.30;;;;;;;;;;5427361;26;20498;-74
2024/04/10 07:55:39;;;;;;;8.80;1.53;;;;;;;;;;5427423;26;20610;-86
2024/04/10 07:58:05;;;;;;;7.10;1.23;;;;;;;;;;5419387;26;20267;-79
2024/04/10 08:00:31;;;;;;;4.10;1.00;;;;;;;;;;5416560;26;20228;-76
2024/04/10 08:02:57;;;;;;;6.00;0.77;;;;;;;;;;5419037;26;20271;-75
2024/04/10 08:05:24;;;;;;;3.77;0.30;;;;;;;;;;5419169;26;20511;-76
2024/04/10 08:07:50;;;;;;;4.37;0.43;;;;;;;;;;5417216;26;20495;-76
2024/04/10 08:10:16;;;;;;;5.57;0.97;;;;;;;;;;5418470;26;20438;-82
2024/04/10 08:12:42;;;;;;;6.70;0.60;;;;;;;;;;5419485;26;20222;-82
2024/04/10 08:15:11;;;;;;;5.50;0.70;;;;;;;;;;5419189;26;20226;-78
2024/04/10 08:17:40;;;;;;;2.60;0.20;;;;;;;;;;5419152;26;20333;-80
2024/04/10 08:20:07;;;;;;;2.83;0.30;;;;;;;;;;5418779;26;20465;-76
2024/04/10 08:22:33;;;;;;;5.53;0.93;;;;;;;;;;5418708;26;20506;-87
2024/04/10 08:24:59;;;;;;;3.90;0.40;;;;;;;;;;5418421;26;20808;-75
2024/04/10 08:27:25;;;;;;;5.43;0.73;;;;;;;;;;5418813;26;20884;-78
2024/04/10 08:29:51;;;;;;;6.60;0.50;;;;;;;;;;5418497;26;20268;-75
2024/04/10 08:32:17;;;;;;;5.17;0.50;;;;;;;;;;5416599;26;20533;-77
2024/04/10 08:34:45;;;;;;;5.50;0.77;;;;;;;;;;5418608;26;20218;-76
2024/04/10 08:37:11;;;;;;;3.80;0.40;;;;;;;;;;5418222;26;20236;-76
2024/04/10 08:39:37;;;;;;;7.13;0.70;;;;;;;;;;5418502;26;20776;-75
2024/04/10 08:42:04;;;;;;;3.17;0.83;;;;;;;;;;5417727;26;20661;-78
2024/04/10 08:44:31;;;;;;;4.33;0.40;;;;;;;;;;5418774;26;20528;-75
2024/04/10 08:46:58;;;;;;;6.17;1.10;;;;;;;;;;5416750;26;20505;-75
2024/04/10 08:49:24;;;;;;;3.63;0.90;;;;;;;;;;5417259;26;20476;-76
2024/04/10 08:51:51;;;;;;;3.97;0.50;;;;;;;;;;5416166;26;20465;-77
2024/04/10 08:54:20;;;;;;;3.07;0.40;;;;;;;;;;5417776;26;20457;-80
2024/04/10 08:56:46;;;;;;;3.90;0.53;;;;;;;;;;5417290;26;20461;-84
2024/04/10 08:59:12;;;;;;;5.43;0.90;;;;;;;;;;5417720;26;20993;-77
2024/04/10 09:01:38;;;;;;;6.33;0.67;;;;;;;;;;5415688;26;20227;-76
2024/04/10 09:04:08;;;;;;;3.10;0.47;;;;;;;;;;5417541;26;20575;-85
2024/04/10 09:06:34;;;;;;;2.77;0.30;;;;;;;;;;5409057;26;20231;-83
2024/04/10 09:09:00;;;;;;;3.03;0.63;;;;;;;;;;5417441;26;20514;-77
2024/04/10 09:11:27;;;;;;;2.73;0.43;;;;;;;;;;5417095;26;20511;-77
2024/04/10 09:14:02;;;;;;;6.10;0.90;;;;;;;;;;5417648;26;20519;-77
2024/04/10 09:16:29;;;;;;;4.63;0.50;;;;;;;;;;5417489;26;20968;-81
2024/04/10 09:18:55;;;;;;;4.17;0.40;;;;;;;;;;5417411;26;20961;-83
2024/04/10 09:21:21;;;;;;;4.57;0.33;;;;;;;;;;5417356;26;20525;-80
2024/04/10 09:23:47;;;;;;;4.67;1.00;;;;;;;;;;5417341;26;20231;-77
2024/04/10 09:26:20;;;;;;;6.07;1.27;;;;;;;;;;5416947;26;20274;-76
2024/04/10 09:28:46;;;;;;;3.53;0.80;;;;;;;;;;5417352;26;20628;-75
2024/04/10 09:31:21;;;;;;;6.07;0.83;;;;;;;;;;5417308;26;20546;-76
2024/04/10 09:33:49;;;;;;;2.80;0.77;;;;;;;;;;5417157;26;21028;-78
2024/04/10 09:36:16;;;;;;;9.37;1.27;;;;;;;;;;5417341;26;20452;-81
2024/04/10 09:38:42;;;;;;;6.20;1.60;;;;;;;;;;5417239;26;20989;-78
2024/04/10 09:41:08;;;;;;;4.73;1.03;;;;;;;;;;5416429;26;20505;-78
2024/04/10 09:43:36;;;;;;;6.23;1.33;;;;;;;;;;5416857;26;20798;-78
2024/04/10 09:46:03;;;;;;;4.03;0.80;;;;;;;;;;5416915;26;20479;-77
2024/04/10 09:48:32;;;;;;;5.60;0.77;;;;;;;;;;5417108;26;20463;-77
2024/04/10 09:51:01;;;;;;;4.23;0.60;;;;;;;;;;5417000;26;20530;-78
2024/04/10 09:53:27;;;;;;;3.93;0.50;;;;;;;;;;5412068;26;21011;-79
2024/04/10 09:55:53;;;;;;;4.30;0.63;;;;;;;;;;5395279;26;20452;-78
2024/04/10 09:58:19;;;;;;;4.90;0.90;;;;;;;;;;5409404;26;20889;-79
2024/04/10 10:00:45;;;;;;;7.00;0.70;;;;;;;;;;5412371;26;20511;-78
2024/04/10 10:03:11;;;;;;;5.53;0.73;;;;;;;;;;5414667;26;20545;-78
2024/04/10 10:05:38;;;;;;;6.53;1.33;;;;;;;;;;5416609;26;20453;-76
2024/04/10 10:08:04;;;;;;;6.30;1.47;;;;;;;;;;5416728;26;21077;-76
2024/04/10 10:10:30;;;;;;;3.60;0.83;;;;;;;;;;5411211;26;20456;-77
2024/04/10 10:13:08;;;;;;;5.17;0.90;;;;;;;;;;5415697;26;20503;-77
2024/04/10 10:15:33;;;;;;;8.03;0.93;;;;;;;;;;5412653;26;20513;-77
2024/04/10 10:17:59;;;;;;;7.80;0.70;;;;;;;;;;5416455;26;20459;-78
2024/04/10 10:20:25;;;;;;;5.60;1.20;;;;;;;;;;5416323;26;20285;-81
2024/04/10 10:22:57;;;;;;;6.00;1.03;;;;;;;;;;5416156;26;20284;-77
2024/04/10 10:25:24;;;;;;;4.80;1.20;;;;;;;;;;5415887;26;20459;-77
2024/04/10 10:27:49;;;;;;;3.20;0.50;;;;;;;;;;5411269;26;20452;-80
2024/04/10 10:30:17;;;;;;;6.10;0.90;;;;;;;;;;5416171;26;21126;-78
2024/04/10 10:32:42;;;;;;;4.20;0.70;;;;;;;;;;5416249;26;20231;-78
2024/04/10 10:35:09;;;;;;;3.87;1.10;;;;;;;;;;5416198;26;20457;-77
2024/04/10 10:37:35;;;;;;;4.23;1.00;;;;;;;;;;5414224;26;20351;-79
2024/04/10 10:40:06;;;;;;;4.57;1.13;;;;;;;;;;5415493;26;20575;-78
2024/04/10 10:42:32;;;;;;;3.00;0.53;;;;;;;;;;5411764;26;20528;-77
2024/04/10 10:45:05;;;;;;;3.00;0.77;;;;;;;;;;5415605;26;20495;-76
2024/04/10 10:47:38;;;;;;;3.40;0.83;;;;;;;;;;5411357;26;20235;-76
2024/04/10 10:50:04;;;;;;;4.80;0.87;;;;;;;;;;5415878;26;20524;-77
2024/04/10 10:52:30;;;;;;;2.30;0.80;;;;;;;;;;5411015;26;20509;-76
2024/04/10 10:55:07;;;;;;;4.57;0.90;;;;;;;;;;5412878;26;20464;-76
2024/04/10 10:57:34;;;;;;;2.73;0.47;;;;;;;;;;5415880;26;20464;-79
2024/04/10 11:00:00;;;;;;;4.77;0.47;;;;;;;;;;5415929;26;20521;-78
2024/04/10 11:02:26;;;;;;;4.60;0.93;;;;;;;;;;5415474;26;20460;-79
2024/04/10 11:04:53;;;;;;;4.63;0.50;;;;;;;;;;5415618;26;20365;-77
2024/04/10 11:07:20;;;;;;;4.80;0.90;;;;;;;;;;5415515;26;20456;-78
2024/04/10 11:09:47;;;;;;;3.13;0.60;;;;;;;;;;5418428;26;20507;-74
2024/04/10 11:12:13;;;;;;;5.93;1.07;;;;;;;;;;5418938;26;20886;-77
2024/04/10 11:14:38;;;;;;;4.80;0.60;;;;;;;;;;5419081;26;20520;-75
2024/04/10 11:17:06;;;;;;;3.50;0.70;;;;;;;;;;5418947;26;20239;-74
2024/04/10 11:19:34;;;;;;;6.30;0.90;;;;;;;;;;5419006;26;20290;-80
2024/04/10 11:22:02;;;;;;;2.80;0.47;;;;;;;;;;5416903;26;20472;-77
2024/04/10 11:24:29;;;;;;;3.90;0.80;;;;;;;;;;5417960;26;20516;-74
2024/04/10 11:26:56;;;;;;;4.20;1.30;;;;;;;;;;5418814;26;20547;-77
2024/04/10 11:29:21;;;;;;;4.87;0.90;;;;;;;;;;5418841;26;20555;-75
2024/04/10 11:31:47;;;;;;;3.47;0.53;;;;;;;;;;5416321;26;20452;-77
2024/04/10 11:34:13;;;;;;;3.60;0.50;;;;;;;;;;5417675;26;20238;-79
2024/04/10 11:36:39;;;;;;;2.50;0.93;;;;;;;;;;5418440;26;20332;-77
2024/04/10 11:39:07;;;;;;;3.20;0.77;;;;;;;;;;5418455;26;20472;-83
2024/04/10 11:41:33;;;;;;;3.37;0.93;;;;;;;;;;5418167;26;20247;-81
2024/04/10 11:43:59;;;;;;;3.43;0.70;;;;;;;;;;5418489;26;20567;-79
2024/04/10 11:46:24;;;;;;;4.00;0.87;;;;;;;;;;5418647;26;20868;-75
2024/04/10 11:48:50;;;;;;;4.80;1.00;;;;;;;;;;5413991;26;20508;-75
2024/04/10 11:51:16;;;;;;;5.73;1.40;;;;;;;;;;5418521;26;20769;-76
2024/04/10 11:53:42;;;;;;;4.60;1.03;;;;;;;;;;5416159;26;20246;-77
2024/04/10 11:56:08;;;;;;;5.70;0.80;;;;;;;;;;5417758;26;20234;-75
2024/04/10 11:58:34;;;;;;;3.90;1.30;;;;;;;;;;5418582;26;20516;-74
2024/04/10 12:01:00;;;;;;;3.00;0.87;;;;;;;;;;5418457;26;20327;-78
2024/04/10 12:03:26;;;;;;;6.50;1.90;;;;;;;;;;5416094;26;20226;-79
2024/04/10 12:05:52;;;;;;;4.50;0.97;;;;;;;;;;5416586;26;20266;-78
2024/04/10 12:08:19;;;;;;;4.10;0.70;;;;;;;;;;5418182;26;20700;-75
2024/04/10 12:10:45;;;;;;;2.53;0.43;;;;;;;;;;5417416;26;20302;-74
2024/04/10 12:13:11;;;;;;;4.23;0.60;;;;;;;;;;5418248;26;20489;-75
2024/04/10 12:15:37;;;;;;;5.03;0.90;;;;;;;;;;5417851;26;20390;-76
2024/04/10 12:18:03;;;;;;;3.67;0.43;;;;;;;;;;5418297;26;20227;-76
2024/04/10 12:20:29;;;;;;;3.93;0.90;;;;;;;;;;5415709;26;20726;-75
2024/04/10 12:22:55;;;;;;;2.07;0.50;;;;;;;;;;5418280;26;20444;-76
2024/04/10 12:25:21;;;;;;;3.10;0.70;;;;;;;;;;5417623;26;20223;-74
2024/04/10 12:27:47;;;;;;;1.30;0.30;;;;;;;;;;5418471;26;20235;-75
2024/04/10 12:30:13;;;;;;;4.57;1.33;;;;;;;;;;5418809;26;20491;-83
2024/04/10 12:32:39;;;;;;;2.63;0.67;;;;;;;;;;5418236;26;20683;-77
2024/04/10 12:38:07;;;;;;;6.17;0.90;;;;;;;;;;5418836;26;20263;-79
2024/04/10 12:40:37;;;;;;;2.53;0.83;;;;;;;;;;5418300;26;20455;-74
2024/04/10 12:43:03;;;;;;;3.60;0.80;;;;;;;;;;5418572;26;20449;-77
2024/04/10 12:45:29;;;;;;;3.83;0.70;;;;;;;;;;5416636;26;20448;-73
2024/04/10 12:47:56;;;;;;;6.80;0.93;;;;;;;;;;5418492;26;20504;-77
2024/04/10 12:50:22;;;;;;;5.93;1.07;;;;;;;;;;5418581;26;20445;-77
2024/04/10 12:52:48;;;;;;;4.97;0.80;;;;;;;;;;5418439;26;20905;-78
2024/04/10 12:55:14;;;;;;;2.87;0.80;;;;;;;;;;5417958;26;20227;-80
2024/04/10 12:57:40;;;;;;;6.67;1.23;;;;;;;;;;5418512;26;20586;-77
2024/04/10 13:00:07;;;;;;;5.30;1.53;;;;;;;;;;5418470;26;20449;-77
2024/04/10 13:02:32;;;;;;;6.57;1.13;;;;;;;;;;5417477;26;20235;-78
2024/04/10 13:04:58;;;;;;;5.70;1.10;;;;;;;;;;5417707;26;20992;-77
2024/04/10 13:07:24;;;;;;;4.03;0.97;;;;;;;;;;5417847;26;20257;-78
2024/04/10 13:09:51;;;;;;;7.33;1.40;;;;;;;;;;5417275;26;20306;-77
2024/04/10 13:12:17;;;;;;;5.33;1.00;;;;;;;;;;5417457;26;20239;-77
2024/04/10 13:14:44;;;;;;;3.83;1.00;;;;;;;;;;5417338;26;20461;-78
2024/04/10 13:17:10;;;;;;;3.90;1.27;;;;;;;;;;5417682;26;20510;-78
2024/04/10 13:19:35;;;;;;;2.30;0.93;;;;;;;;;;5417651;26;20463;-77
2024/04/10 13:22:02;;;;;;;4.27;1.23;;;;;;;;;;5412586;26;20565;-78
2024/04/10 13:24:28;;;;;;;3.57;0.80;;;;;;;;;;5417183;26;20653;-87
2024/04/10 13:26:54;;;;;;;4.70;1.30;;;;;;;;;;5417560;26;20472;-78
2024/04/10 13:29:20;;;;;;;4.13;0.73;;;;;;;;;;5416707;26;20503;-87
2024/04/10 13:31:46;;;;;;;5.80;0.70;;;;;;;;;;5415646;26;20570;-83
2024/04/10 13:34:12;;;;;;;3.97;0.90;;;;;;;;;;5417451;26;20457;-78
2024/04/10 13:36:38;;;;;;;2.63;0.67;;;;;;;;;;5417060;26;20339;-79
2024/04/10 13:39:04;;;;;;;5.07;1.40;;;;;;;;;;5416835;26;20539;-78
2024/04/10 13:41:31;;;;;;;3.00;0.97;;;;;;;;;;5417206;26;20563;-80
2024/04/10 13:43:59;;;;;;;2.20;0.90;;;;;;;;;;5417136;26;21048;-77
2024/04/10 13:46:25;;;;;;;2.83;0.67;;;;;;;;;;5417404;26;20457;-78
2024/04/10 13:48:51;;;;;;;4.10;0.90;;;;;;;;;;5417251;26;20465;-77
2024/04/10 13:51:21;;;;;;;3.53;0.80;;;;;;;;;;5417029;26;20472;-76
2024/04/10 13:53:47;;;;;;;3.63;0.77;;;;;;;;;;5417094;26;20579;-76
2024/04/10 13:56:13;;;;;;;11.03;1.47;;;;;;;;;;5416596;26;20505;-79
2024/04/10 13:58:39;;;;;;;2.80;0.57;;;;;;;;;;5416935;26;20461;-77
2024/04/10 14:01:12;;;;;;;4.50;1.10;;;;;;;;;;5416200;26;20367;-79
2024/04/10 14:03:39;;;;;;;4.23;0.60;;;;;;;;;;5415018;26;20242;-78
2024/04/10 14:06:05;;;;;;;3.67;0.97;;;;;;;;;;5416204;26;20507;-78
2024/04/10 14:08:31;;;;;;;2.40;0.53;;;;;;;;;;5414469;26;20470;-77
2024/04/10 14:11:06;;;;;;;2.83;0.70;;;;;;;;;;5416772;26;21025;-78
2024/04/10 14:13:33;;;;;;;2.90;0.43;;;;;;;;;;5417185;26;20488;-78
2024/04/10 14:15:59;;;;;;;4.87;1.20;;;;;;;;;;5415491;26;20448;-78
2024/04/10 14:18:26;;;;;;;3.90;0.57;;;;;;;;;;5417060;26;20441;-79
2024/04/10 14:21:05;;;;;;;2.73;0.30;;;;;;;;;;5417239;26;21047;-78
2024/04/10 14:23:31;;;;;;;2.77;0.43;;;;;;;;;;5417162;26;20444;-78
2024/04/10 14:25:58;;;;;;;3.03;0.60;;;;;;;;;;5401053;26;20451;-83
2024/04/10 14:28:28;;;;;;;4.43;0.70;;;;;;;;;;5407156;26;20540;-79
2024/04/10 14:30:58;;;;;;;3.00;0.40;;;;;;;;;;5416419;26;20866;-77
2024/04/10 14:33:24;;;;;;;4.90;0.80;;;;;;;;;;5416107;26;20564;-76
2024/04/10 14:35:50;;;;;;;7.10;1.07;;;;;;;;;;5416506;26;20448;-77
2024/04/10 14:38:16;;;;;;;4.93;0.93;;;;;;;;;;5414551;26;20218;-78
2024/04/10 14:40:42;;;;;;;3.60;0.60;;;;;;;;;;5415108;26;20223;-77
2024/04/10 14:43:08;;;;;;;4.90;0.30;;;;;;;;;;5419048;26;20599;-80
2024/04/10 14:45:34;;;;;;;3.23;0.73;;;;;;;;;;5420009;26;20546;-78
2024/04/10 14:48:00;;;;;;;3.93;0.87;;;;;;;;;;5419282;26;20226;-78